Time;durP1;ratioP1;P1;durP2;ratioP2;P2;SDS_P1;SDS_P2;PMS_P1;PMS_P2;Temp;Humidity;BMP_temperature;BMP_pressure;BME280_temperature;BME280_humidity;BME280_pressure;Samples;Min_cycle;Max_cycle;Signal;HPM_P1;HPM_P2
2022/04/22 00:02:13;;;;;;;8.45;2.50;;;;;;;;;;5004802;28;20231;-15
2022/04/22 00:04:40;;;;;;;6.35;2.38;;;;;;;;;;4999835;28;20232;-15
2022/04/22 00:07:09;;;;;;;5.47;2.50;;;;;;;;;;4994011;28;20240;-15
2022/04/22 00:09:36;;;;;;;4.90;2.55;;;;;;;;;;4993683;28;20259;-15
2022/04/22 00:12:04;;;;;;;10.20;2.72;;;;;;;;;;4982333;28;20239;-16
2022/04/22 00:14:31;;;;;;;6.18;2.80;;;;;;;;;;4980107;28;20778;-15
2022/04/22 00:16:59;;;;;;;6.00;2.58;;;;;;;;;;4997290;28;20956;-15
2022/04/22 00:19:26;;;;;;;4.78;2.10;;;;;;;;;;4993856;28;20236;-16
2022/04/22 00:21:54;;;;;;;4.00;2.20;;;;;;;;;;4993316;28;20726;-16
2022/04/22 00:24:22;;;;;;;5.03;2.58;;;;;;;;;;4992728;28;20798;-15
2022/04/22 00:26:50;;;;;;;10.35;2.88;;;;;;;;;;4993044;28;20240;-15
2022/04/22 00:29:17;;;;;;;3.67;2.55;;;;;;;;;;4993555;28;20232;-16
2022/04/22 00:31:44;;;;;;;5.32;2.55;;;;;;;;;;4993442;28;20228;-16
2022/04/22 00:34:12;;;;;;;6.22;2.65;;;;;;;;;;4993343;28;20287;-15
2022/04/22 00:36:39;;;;;;;6.18;2.80;;;;;;;;;;4985484;28;20243;-15
2022/04/22 00:39:06;;;;;;;3.60;2.45;;;;;;;;;;4977496;28;20271;-15
2022/04/22 00:41:35;;;;;;;3.85;2.63;;;;;;;;;;4973964;28;20224;-15
2022/04/22 00:44:03;;;;;;;5.80;2.75;;;;;;;;;;4973765;28;20229;-15
2022/04/22 00:46:30;;;;;;;3.67;2.30;;;;;;;;;;4985176;28;20237;-15
2022/04/22 00:48:57;;;;;;;3.63;2.65;;;;;;;;;;4980861;28;20233;-15
2022/04/22 00:51:25;;;;;;;5.97;2.47;;;;;;;;;;4973714;28;20606;-15
2022/04/22 00:53:52;;;;;;;2.85;2.30;;;;;;;;;;4973460;28;20244;-15
2022/04/22 00:56:20;;;;;;;3.97;3.00;;;;;;;;;;4973848;28;20228;-15
2022/04/22 00:58:49;;;;;;;4.30;2.65;;;;;;;;;;4979270;28;20737;-15
2022/04/22 01:01:16;;;;;;;3.47;2.28;;;;;;;;;;4992437;28;20893;-15
2022/04/22 01:09:47;;;;;;;3.95;2.50;;;;;;;;;;4990281;28;20228;-15
2022/04/22 01:12:02;;;;;;;4.57;2.83;;;;;;;;;;4987706;28;20229;-15
2022/04/22 01:14:30;;;;;;;4.32;2.53;;;;;;;;;;4995491;28;20232;-16
2022/04/22 01:17:00;;;;;;;3.80;2.55;;;;;;;;;;5003660;28;20780;-16
2022/04/22 01:19:27;;;;;;;5.80;2.58;;;;;;;;;;5001365;28;20220;-16
2022/04/22 01:21:56;;;;;;;3.78;2.72;;;;;;;;;;5003675;28;20282;-16
2022/04/22 01:24:23;;;;;;;3.72;2.70;;;;;;;;;;4995789;28;20267;-16
2022/04/22 01:26:51;;;;;;;3.92;2.47;;;;;;;;;;4999722;28;20902;-16
2022/04/22 01:29:18;;;;;;;5.43;2.53;;;;;;;;;;5004004;28;21390;-16
2022/04/22 01:31:46;;;;;;;5.18;2.70;;;;;;;;;;4997902;28;20228;-16
2022/04/22 01:34:14;;;;;;;3.30;2.50;;;;;;;;;;5002521;28;20327;-16
2022/04/22 01:36:41;;;;;;;4.10;2.85;;;;;;;;;;4999674;28;20722;-16
2022/04/22 01:39:10;;;;;;;4.55;2.70;;;;;;;;;;5001417;28;20716;-16
2022/04/22 01:41:37;;;;;;;4.65;2.28;;;;;;;;;;5001550;28;20236;-16
2022/04/22 01:44:05;;;;;;;4.03;2.63;;;;;;;;;;5001996;28;20223;-15
2022/04/22 01:46:32;;;;;;;5.97;2.75;;;;;;;;;;4999452;28;20235;-15
2022/04/22 01:49:00;;;;;;;5.55;2.60;;;;;;;;;;5001088;28;20315;-15
2022/04/22 01:51:27;;;;;;;4.28;2.70;;;;;;;;;;5002138;28;20978;-16
2022/04/22 01:53:54;;;;;;;3.08;2.67;;;;;;;;;;5000432;28;20232;-16
2022/04/22 01:56:23;;;;;;;5.25;2.72;;;;;;;;;;4999694;28;20236;-15
2022/04/22 01:58:50;;;;;;;3.80;2.15;;;;;;;;;;4996042;28;20727;-16
2022/04/22 02:01:17;;;;;;;3.28;2.53;;;;;;;;;;4999618;28;20243;-16
2022/04/22 02:03:45;;;;;;;3.60;2.55;;;;;;;;;;5000448;28;20240;-16
2022/04/22 02:06:12;;;;;;;3.83;2.78;;;;;;;;;;4997293;28;20243;-16
2022/04/22 02:08:39;;;;;;;4.47;2.45;;;;;;;;;;5001380;28;20242;-16
2022/04/22 02:11:07;;;;;;;4.95;3.10;;;;;;;;;;5001699;28;20227;-14
2022/04/22 02:13:36;;;;;;;3.70;2.70;;;;;;;;;;4999609;28;20242;-16
2022/04/22 02:16:05;;;;;;;2.60;2.40;;;;;;;;;;5000838;28;20318;-15
2022/04/22 02:18:36;;;;;;;3.28;2.75;;;;;;;;;;5000205;28;20872;-14
2022/04/22 02:21:04;;;;;;;5.10;2.47;;;;;;;;;;5001638;28;20235;-16
2022/04/22 02:23:32;;;;;;;5.82;2.97;;;;;;;;;;4998482;28;20243;-16
2022/04/22 02:25:59;;;;;;;6.28;2.75;;;;;;;;;;5000107;28;20232;-15
2022/04/22 02:28:31;;;;;;;5.07;2.90;;;;;;;;;;5000976;28;20699;-16
2022/04/22 02:31:01;;;;;;;7.95;2.80;;;;;;;;;;4994675;28;20223;-15
2022/04/22 02:33:28;;;;;;;4.72;3.28;;;;;;;;;;4999466;28;20239;-16
2022/04/22 02:35:55;;;;;;;4.72;2.78;;;;;;;;;;5000116;28;20232;-15
2022/04/22 02:38:23;;;;;;;3.30;2.42;;;;;;;;;;5002878;28;20250;-16
2022/04/22 02:46:21;;;;;;;4.68;2.72;;;;;;;;;;4991422;28;20236;-15
2022/04/22 02:48:48;;;;;;;8.30;2.95;;;;;;;;;;4995757;28;20262;-16
2022/04/22 02:51:16;;;;;;;3.97;2.90;;;;;;;;;;5000344;28;20259;-16
2022/04/22 02:53:43;;;;;;;7.93;2.95;;;;;;;;;;5000319;28;20633;-16
2022/04/22 02:56:11;;;;;;;6.20;2.83;;;;;;;;;;5000238;28;20231;-16
2022/04/22 02:58:38;;;;;;;4.38;2.65;;;;;;;;;;4999014;28;20980;-16
2022/04/22 03:01:06;;;;;;;4.10;2.80;;;;;;;;;;5005070;28;20243;-16
2022/04/22 03:03:34;;;;;;;3.53;2.60;;;;;;;;;;5002053;28;20237;-16
2022/04/22 03:06:02;;;;;;;6.93;2.85;;;;;;;;;;5000725;28;20234;-16
2022/04/22 03:08:29;;;;;;;5.63;2.60;;;;;;;;;;5000055;28;20271;-16
2022/04/22 03:10:56;;;;;;;3.38;2.67;;;;;;;;;;5002326;28;20725;-16
2022/04/22 03:13:24;;;;;;;3.53;2.50;;;;;;;;;;4998875;28;20246;-16
2022/04/22 03:15:51;;;;;;;3.92;2.80;;;;;;;;;;5000808;28;20721;-16
2022/04/22 03:18:19;;;;;;;4.95;2.70;;;;;;;;;;4995012;28;20229;-16
2022/04/22 03:20:48;;;;;;;4.38;2.75;;;;;;;;;;4999081;28;20705;-16
2022/04/22 03:23:15;;;;;;;4.40;3.00;;;;;;;;;;5001662;28;20235;-16
2022/04/22 03:25:42;;;;;;;3.75;2.78;;;;;;;;;;4999366;28;20228;-16
2022/04/22 03:28:09;;;;;;;3.97;2.90;;;;;;;;;;4999305;28;20239;-16
2022/04/22 03:30:37;;;;;;;4.00;2.67;;;;;;;;;;4998304;28;20244;-16
2022/04/22 03:33:05;;;;;;;5.10;3.28;;;;;;;;;;5000787;28;20307;-16
2022/04/22 03:35:32;;;;;;;4.32;2.65;;;;;;;;;;5000722;28;20236;-16
2022/04/22 03:38:01;;;;;;;4.05;2.70;;;;;;;;;;5004650;28;20227;-16
2022/04/22 03:40:28;;;;;;;4.60;2.60;;;;;;;;;;4999233;28;20251;-16
2022/04/22 03:42:55;;;;;;;4.93;2.83;;;;;;;;;;5005168;28;20228;-16
2022/04/22 03:45:23;;;;;;;4.75;2.97;;;;;;;;;;5002170;28;20224;-16
2022/04/22 03:47:50;;;;;;;6.10;3.22;;;;;;;;;;5004822;28;20231;-16
2022/04/22 03:50:17;;;;;;;4.00;2.88;;;;;;;;;;4998093;28;21007;-16
2022/04/22 03:52:45;;;;;;;5.38;3.13;;;;;;;;;;5004671;28;20232;-16
2022/04/22 03:55:13;;;;;;;3.53;2.90;;;;;;;;;;5003968;28;20725;-16
2022/04/22 04:00:25;;;;;;;5.45;3.15;;;;;;;;;;5001618;28;20248;-16
2022/04/22 04:02:53;;;;;;;4.82;2.78;;;;;;;;;;5000212;28;21059;-16
2022/04/22 04:05:20;;;;;;;4.03;2.63;;;;;;;;;;5001711;28;20631;-16
2022/04/22 04:07:48;;;;;;;3.70;2.55;;;;;;;;;;4985688;28;20236;-16
2022/04/22 04:16:00;;;;;;;4.57;3.10;;;;;;;;;;4997604;28;20718;-16
2022/04/22 04:18:28;;;;;;;3.08;2.60;;;;;;;;;;5003125;28;20254;-16
2022/04/22 04:23:40;;;;;;;5.72;3.40;;;;;;;;;;5003588;28;20244;-14
2022/04/22 04:26:09;;;;;;;5.10;2.95;;;;;;;;;;5002642;28;20228;-16
2022/04/22 04:28:37;;;;;;;4.72;3.10;;;;;;;;;;5005859;28;20232;-16
2022/04/22 04:31:04;;;;;;;4.13;2.65;;;;;;;;;;4999800;28;20231;-16
2022/04/22 04:33:31;;;;;;;3.30;3.00;;;;;;;;;;5002547;28;20691;-16
2022/04/22 04:35:59;;;;;;;5.82;2.90;;;;;;;;;;5003912;28;20243;-15
2022/04/22 04:38:27;;;;;;;5.95;2.90;;;;;;;;;;5002395;28;20247;-16
2022/04/22 04:40:54;;;;;;;5.50;3.15;;;;;;;;;;5000994;28;20618;-16
2022/04/22 04:43:23;;;;;;;4.43;3.28;;;;;;;;;;5001933;28;20232;-16
2022/04/22 04:45:51;;;;;;;4.45;3.15;;;;;;;;;;4993924;28;20236;-16
2022/04/22 04:48:18;;;;;;;3.67;2.75;;;;;;;;;;5004581;28;20239;-16
2022/04/22 04:50:45;;;;;;;4.90;3.40;;;;;;;;;;4998440;28;20239;-16
2022/04/22 04:53:13;;;;;;;5.78;3.28;;;;;;;;;;5001404;28;20232;-16
2022/04/22 04:55:40;;;;;;;4.65;3.20;;;;;;;;;;5003409;28;21156;-16
2022/04/22 04:58:08;;;;;;;4.78;3.40;;;;;;;;;;5002291;28;20236;-16
2022/04/22 05:00:36;;;;;;;5.72;3.55;;;;;;;;;;5000962;28;20240;-16
2022/04/22 05:03:04;;;;;;;3.45;3.15;;;;;;;;;;5000799;28;20234;-16
2022/04/22 05:05:32;;;;;;;6.97;3.20;;;;;;;;;;4996356;28;20328;-16
2022/04/22 05:07:59;;;;;;;4.03;3.20;;;;;;;;;;5003686;28;20242;-16
2022/04/22 05:10:27;;;;;;;3.63;3.30;;;;;;;;;;5000179;28;20231;-16
2022/04/22 05:12:55;;;;;;;4.93;3.17;;;;;;;;;;5001057;28;20232;-15
2022/04/22 05:15:23;;;;;;;6.20;3.30;;;;;;;;;;4998136;28;20240;-15
2022/04/22 05:17:52;;;;;;;4.50;3.65;;;;;;;;;;4992918;28;20632;-15
2022/04/22 05:20:20;;;;;;;4.47;3.10;;;;;;;;;;5004132;28;20240;-15
2022/04/22 05:22:47;;;;;;;6.95;3.63;;;;;;;;;;5000511;28;20239;-15
2022/04/22 05:25:15;;;;;;;4.13;3.25;;;;;;;;;;5001453;28;20231;-15
2022/04/22 05:27:42;;;;;;;3.55;2.78;;;;;;;;;;4997481;28;20240;-15
2022/04/22 05:32:56;;;;;;;6.82;3.58;;;;;;;;;;4997594;28;20230;-15
2022/04/22 05:35:26;;;;;;;4.88;3.30;;;;;;;;;;5002667;28;20235;-15
2022/04/22 05:37:53;;;;;;;6.53;3.10;;;;;;;;;;5001744;28;20227;-15
2022/04/22 05:40:21;;;;;;;6.82;3.58;;;;;;;;;;4999598;28;20231;-15
2022/04/22 05:42:49;;;;;;;5.80;3.70;;;;;;;;;;4996845;28;20228;-15
2022/04/22 05:45:16;;;;;;;5.70;4.03;;;;;;;;;;5001515;28;20710;-15
2022/04/22 05:47:44;;;;;;;6.50;3.58;;;;;;;;;;5002547;28;20282;-15
2022/04/22 05:50:13;;;;;;;4.43;3.58;;;;;;;;;;4999545;28;21057;-15
2022/04/22 05:52:40;;;;;;;7.05;3.47;;;;;;;;;;4998325;28;20319;-15
2022/04/22 05:55:08;;;;;;;7.97;3.90;;;;;;;;;;5001543;28;20241;-15
2022/04/22 05:57:36;;;;;;;5.50;3.78;;;;;;;;;;5001170;28;20238;-15
2022/04/22 06:00:04;;;;;;;5.47;3.58;;;;;;;;;;4999498;28;20323;-15
2022/04/22 06:02:32;;;;;;;5.40;3.90;;;;;;;;;;5000805;28;20236;-15
2022/04/22 06:04:59;;;;;;;7.00;3.95;;;;;;;;;;5000911;28;20243;-15
2022/04/22 06:07:28;;;;;;;5.35;4.07;;;;;;;;;;5002725;28;20247;-15
2022/04/22 06:12:40;;;;;;;7.72;4.45;;;;;;;;;;4999905;28;20234;-15
2022/04/22 06:15:08;;;;;;;4.90;4.10;;;;;;;;;;5000117;28;20239;-15
2022/04/22 06:17:35;;;;;;;9.32;4.57;;;;;;;;;;5000245;28;20239;-15
2022/04/22 06:20:02;;;;;;;4.97;4.38;;;;;;;;;;5000446;28;20264;-15
2022/04/22 06:22:31;;;;;;;6.90;4.70;;;;;;;;;;4999071;28;20243;-15
2022/04/22 06:24:58;;;;;;;9.30;4.80;;;;;;;;;;4996144;28;20239;-16
2022/04/22 06:27:26;;;;;;;6.68;4.90;;;;;;;;;;4994412;28;20232;-15
2022/04/22 06:29:53;;;;;;;6.65;4.70;;;;;;;;;;4993339;28;20223;-16
2022/04/22 06:32:22;;;;;;;6.35;4.72;;;;;;;;;;4994512;28;20255;-16
2022/04/22 06:34:50;;;;;;;6.38;4.40;;;;;;;;;;4990659;28;20251;-14
2022/04/22 06:37:18;;;;;;;8.75;4.75;;;;;;;;;;4995369;28;20238;-16
2022/04/22 06:48:02;;;;;;;7.15;4.32;;;;;;;;;;4996215;28;20224;-16
2022/04/22 06:50:49;;;;;;;5.90;4.28;;;;;;;;;;4992302;28;20228;-16
2022/04/22 06:53:17;;;;;;;7.43;4.40;;;;;;;;;;4996151;28;20695;-16
2022/04/22 06:55:46;;;;;;;9.13;4.40;;;;;;;;;;4995396;28;20236;-16
2022/04/22 06:58:14;;;;;;;6.75;4.30;;;;;;;;;;4995737;28;20240;-16
2022/04/22 07:00:41;;;;;;;10.85;4.15;;;;;;;;;;4995093;28;20247;-16
2022/04/22 07:03:09;;;;;;;19.50;6.57;;;;;;;;;;4996780;28;20239;-16
2022/04/22 07:05:37;;;;;;;16.45;6.60;;;;;;;;;;4995973;28;20327;-16
2022/04/22 07:08:05;;;;;;;20.90;7.40;;;;;;;;;;4997380;28;20727;-16
2022/04/22 07:10:33;;;;;;;17.15;6.93;;;;;;;;;;4995812;28;20232;-16
2022/04/22 07:13:01;;;;;;;18.08;6.95;;;;;;;;;;4997905;28;20235;-16
2022/04/22 07:15:29;;;;;;;17.27;7.47;;;;;;;;;;4994941;28;20236;-16
2022/04/22 07:17:57;;;;;;;16.95;7.30;;;;;;;;;;4997213;28;20236;-16
2022/04/22 07:20:24;;;;;;;21.55;7.35;;;;;;;;;;4998984;28;20228;-14
2022/04/22 07:22:53;;;;;;;16.85;7.72;;;;;;;;;;4998328;28;20248;-16
2022/04/22 07:25:20;;;;;;;14.82;7.25;;;;;;;;;;4996356;28;20227;-15
2022/04/22 07:27:54;;;;;;;14.38;7.53;;;;;;;;;;4993317;28;20232;-15
2022/04/22 07:30:23;;;;;;;13.48;7.00;;;;;;;;;;5000084;28;20262;-16
2022/04/22 07:32:50;;;;;;;18.77;7.85;;;;;;;;;;4998865;28;20235;-15
2022/04/22 07:35:18;;;;;;;18.02;7.18;;;;;;;;;;5000338;28;20238;-16
2022/04/22 07:37:46;;;;;;;13.25;7.07;;;;;;;;;;4996594;28;20240;-14
2022/04/22 07:40:14;;;;;;;10.30;7.05;;;;;;;;;;4999805;28;20228;-14
2022/04/22 07:48:33;;;;;;;26.80;7.25;;;;;;;;;;5001650;28;20481;-16
2022/04/22 07:51:01;;;;;;;21.30;6.90;;;;;;;;;;5003150;28;20235;-16
2022/04/22 07:53:28;;;;;;;15.98;6.22;;;;;;;;;;5002306;28;20236;-16
2022/04/22 07:55:55;;;;;;;12.07;6.20;;;;;;;;;;5005100;28;20998;-16
2022/04/22 07:58:23;;;;;;;19.40;7.38;;;;;;;;;;4999450;28;20461;-15
2022/04/22 08:00:51;;;;;;;7.82;5.82;;;;;;;;;;5000411;28;20228;-15
2022/04/22 08:03:19;;;;;;;16.88;5.80;;;;;;;;;;4999396;28;20236;-15
2022/04/22 08:05:46;;;;;;;8.48;4.85;;;;;;;;;;5000109;28;20232;-15
2022/04/22 08:08:13;;;;;;;9.32;5.32;;;;;;;;;;4997732;28;20238;-15
2022/04/22 08:10:40;;;;;;;14.50;5.57;;;;;;;;;;5000426;28;20668;-15
2022/04/22 08:13:08;;;;;;;14.43;6.18;;;;;;;;;;5001935;28;20228;-15
2022/04/22 08:15:35;;;;;;;10.32;6.50;;;;;;;;;;4999806;28;20719;-15
2022/04/22 08:18:04;;;;;;;10.80;6.15;;;;;;;;;;5003363;28;20239;-15
2022/04/22 08:20:32;;;;;;;12.55;6.32;;;;;;;;;;4997234;28;20233;-14
2022/04/22 08:22:59;;;;;;;12.75;6.20;;;;;;;;;;4999593;28;20259;-14
2022/04/22 08:25:27;;;;;;;18.23;6.63;;;;;;;;;;5000778;28;20243;-15
2022/04/22 08:27:54;;;;;;;18.98;6.85;;;;;;;;;;5005019;28;20244;-15
2022/04/22 08:30:22;;;;;;;34.38;7.65;;;;;;;;;;5001399;28;20315;-15
2022/04/22 08:32:49;;;;;;;30.42;5.97;;;;;;;;;;4999028;28;20311;-16
2022/04/22 08:35:18;;;;;;;23.42;6.53;;;;;;;;;;5004940;28;20315;-16
2022/04/22 08:37:45;;;;;;;17.48;6.13;;;;;;;;;;5001840;28;20239;-17
2022/04/22 08:40:13;;;;;;;18.55;6.95;;;;;;;;;;4997579;28;20919;-16
2022/04/22 08:42:40;;;;;;;23.45;7.07;;;;;;;;;;5000601;28;20266;-16
2022/04/22 08:45:08;;;;;;;13.50;5.45;;;;;;;;;;4998001;28;20275;-16
2022/04/22 08:50:23;;;;;;;20.52;5.93;;;;;;;;;;4991695;28;21224;-15
2022/04/22 08:52:52;;;;;;;9.07;5.18;;;;;;;;;;5000594;28;20232;-15
2022/04/22 08:55:19;;;;;;;14.65;5.50;;;;;;;;;;4995736;28;20239;-15
2022/04/22 08:57:47;;;;;;;12.80;5.20;;;;;;;;;;5003826;28;20243;-15
2022/04/22 09:00:19;;;;;;;18.92;5.90;;;;;;;;;;4997182;28;20292;-15
2022/04/22 09:02:46;;;;;;;13.35;5.88;;;;;;;;;;4997572;28;20240;-16
2022/04/22 09:05:13;;;;;;;14.80;5.28;;;;;;;;;;4998997;28;20319;-15
2022/04/22 09:07:43;;;;;;;13.52;5.32;;;;;;;;;;5000797;28;20232;-16
2022/04/22 09:10:11;;;;;;;9.90;5.00;;;;;;;;;;5004804;28;20992;-16
2022/04/22 09:12:38;;;;;;;9.25;4.95;;;;;;;;;;5002701;28;20228;-16
2022/04/22 09:15:07;;;;;;;15.65;4.78;;;;;;;;;;5001500;28;20582;-17
2022/04/22 09:17:38;;;;;;;11.75;5.25;;;;;;;;;;5002204;28;21390;-15
2022/04/22 09:20:06;;;;;;;16.33;5.50;;;;;;;;;;5001165;28;20235;-15
2022/04/22 09:22:35;;;;;;;15.52;5.88;;;;;;;;;;5002049;28;20271;-15
2022/04/22 09:25:04;;;;;;;16.92;5.50;;;;;;;;;;5003746;28;20231;-16
2022/04/22 09:27:31;;;;;;;17.55;5.50;;;;;;;;;;4998117;28;20988;-16
2022/04/22 09:30:00;;;;;;;12.38;5.03;;;;;;;;;;5001213;28;20240;-16
2022/04/22 09:32:28;;;;;;;10.77;5.00;;;;;;;;;;4999900;28;20236;-16
2022/04/22 09:34:56;;;;;;;12.48;5.63;;;;;;;;;;5003567;28;20239;-17
2022/04/22 09:43:03;;;;;;;9.05;5.45;;;;;;;;;;4984755;28;20232;-16
2022/04/22 09:45:38;;;;;;;9.70;5.20;;;;;;;;;;4995590;28;20236;-16
2022/04/22 09:48:12;;;;;;;10.65;4.53;;;;;;;;;;4993698;28;20253;-16
2022/04/22 09:50:40;;;;;;;7.05;4.55;;;;;;;;;;4997357;28;20243;-17
2022/04/22 09:53:07;;;;;;;14.30;4.82;;;;;;;;;;5000804;28;20239;-16
2022/04/22 09:55:48;;;;;;;14.02;5.43;;;;;;;;;;5000305;28;21005;-14
2022/04/22 09:58:22;;;;;;;16.40;4.65;;;;;;;;;;4999354;28;20235;-16
2022/04/22 10:00:50;;;;;;;8.27;5.20;;;;;;;;;;4995985;28;20234;-16
2022/04/22 10:03:17;;;;;;;9.38;5.03;;;;;;;;;;5002455;28;20422;-16
2022/04/22 10:05:45;;;;;;;17.48;5.68;;;;;;;;;;4998095;28;20265;-16
2022/04/22 10:08:13;;;;;;;14.88;4.95;;;;;;;;;;5000747;28;21109;-14
2022/04/22 10:10:40;;;;;;;11.55;4.40;;;;;;;;;;4997695;28;20247;-16
2022/04/22 10:13:12;;;;;;;11.00;4.95;;;;;;;;;;4995761;28;20235;-18
2022/04/22 10:15:39;;;;;;;7.63;4.88;;;;;;;;;;4992490;28;20232;-17
2022/04/22 10:18:07;;;;;;;11.48;4.30;;;;;;;;;;4997944;28;20243;-17
2022/04/22 10:20:35;;;;;;;9.45;4.22;;;;;;;;;;4994450;28;20236;-17
2022/04/22 10:23:02;;;;;;;8.05;4.50;;;;;;;;;;4990977;28;20267;-15
2022/04/22 10:25:30;;;;;;;8.55;4.40;;;;;;;;;;4996236;28;20887;-15
2022/04/22 10:27:58;;;;;;;10.10;4.20;;;;;;;;;;4990429;28;20436;-16
2022/04/22 10:30:26;;;;;;;9.15;4.20;;;;;;;;;;4993995;28;20558;-16
2022/04/22 10:32:54;;;;;;;6.97;3.63;;;;;;;;;;4985045;28;20235;-15
2022/04/22 10:35:22;;;;;;;10.60;3.70;;;;;;;;;;4986912;28;20657;-16
2022/04/22 10:37:50;;;;;;;15.98;3.60;;;;;;;;;;4986771;28;20430;-15
2022/04/22 10:40:17;;;;;;;6.13;2.60;;;;;;;;;;4989290;28;21000;-17
2022/04/22 10:42:45;;;;;;;7.10;3.22;;;;;;;;;;4989656;28;20243;-17
2022/04/22 10:47:58;;;;;;;5.70;2.70;;;;;;;;;;5000000;28;20290;-15
2022/04/22 10:50:27;;;;;;;8.48;2.60;;;;;;;;;;5002310;28;20243;-16
2022/04/22 10:53:01;;;;;;;4.90;2.83;;;;;;;;;;5001866;28;20232;-16
2022/04/22 10:55:30;;;;;;;11.00;3.13;;;;;;;;;;5002450;28;20222;-16
2022/04/22 10:58:16;;;;;;;3.70;2.70;;;;;;;;;;5002608;28;20298;-16
2022/04/22 11:00:44;;;;;;;5.68;2.55;;;;;;;;;;5001388;28;20232;-16
2022/04/22 11:03:14;;;;;;;6.15;2.25;;;;;;;;;;5005854;28;20236;-16
2022/04/22 11:05:46;;;;;;;8.05;2.33;;;;;;;;;;5004353;28;20240;-16
2022/04/22 11:08:17;;;;;;;10.73;2.70;;;;;;;;;;5002250;28;20238;-16
2022/04/22 11:10:58;;;;;;;8.05;2.70;;;;;;;;;;5004950;28;20232;-16
2022/04/22 11:13:26;;;;;;;6.40;2.10;;;;;;;;;;4998788;28;20238;-16
2022/04/22 11:15:56;;;;;;;5.57;2.20;;;;;;;;;;5003031;28;20746;-15
2022/04/22 11:18:25;;;;;;;5.45;2.30;;;;;;;;;;4999563;28;20236;-16
2022/04/22 11:20:54;;;;;;;7.90;2.28;;;;;;;;;;5002243;28;20232;-16
2022/04/22 11:23:21;;;;;;;10.98;2.33;;;;;;;;;;5004873;28;20983;-16
2022/04/22 11:25:51;;;;;;;3.75;2.05;;;;;;;;;;5001726;28;20236;-15
2022/04/22 11:28:19;;;;;;;5.80;2.13;;;;;;;;;;4998929;28;20263;-16
2022/04/22 11:30:46;;;;;;;5.63;2.30;;;;;;;;;;5001784;28;20427;-15
2022/04/22 11:33:21;;;;;;;4.85;1.83;;;;;;;;;;5006350;28;20266;-16
2022/04/22 11:35:53;;;;;;;7.32;2.30;;;;;;;;;;5005743;28;20231;-16
2022/04/22 11:38:20;;;;;;;6.95;2.10;;;;;;;;;;4998117;28;20224;-16
2022/04/22 11:40:49;;;;;;;7.15;2.15;;;;;;;;;;5004486;28;20231;-16
2022/04/22 11:43:18;;;;;;;3.65;1.42;;;;;;;;;;5002140;28;20243;-16
2022/04/22 11:45:46;;;;;;;4.53;1.75;;;;;;;;;;5001745;28;20720;-15
2022/04/22 11:48:14;;;;;;;4.82;1.80;;;;;;;;;;4998154;28;20232;-15
2022/04/22 11:50:42;;;;;;;2.67;1.63;;;;;;;;;;4999838;28;20232;-15
2022/04/22 11:53:14;;;;;;;3.10;1.77;;;;;;;;;;5003637;28;20241;-15
2022/04/22 11:55:43;;;;;;;3.70;2.05;;;;;;;;;;5003224;28;20721;-16
2022/04/22 11:58:10;;;;;;;4.43;2.08;;;;;;;;;;5004142;28;20228;-15
2022/04/22 12:06:12;;;;;;;9.07;1.77;;;;;;;;;;5002694;28;20239;-15
2022/04/22 12:08:51;;;;;;;3.72;2.03;;;;;;;;;;5003860;28;20232;-15
2022/04/22 12:11:18;;;;;;;4.35;2.22;;;;;;;;;;4996771;28;20416;-15
2022/04/22 12:13:47;;;;;;;5.10;2.10;;;;;;;;;;5001625;28;20428;-15
2022/04/22 12:16:19;;;;;;;5.05;2.58;;;;;;;;;;5000287;28;20235;-15
2022/04/22 12:18:46;;;;;;;5.88;2.10;;;;;;;;;;5001806;28;20232;-15
2022/04/22 12:21:14;;;;;;;3.65;2.50;;;;;;;;;;5001488;28;20234;-15
2022/04/22 12:23:41;;;;;;;4.72;2.45;;;;;;;;;;4995862;28;20252;-15
2022/04/22 12:26:15;;;;;;;6.18;3.05;;;;;;;;;;5001293;28;21159;-15
2022/04/22 12:28:56;;;;;;;7.93;2.50;;;;;;;;;;5003288;28;20227;-16
2022/04/22 12:31:23;;;;;;;8.38;2.80;;;;;;;;;;4999875;28;20216;-15
2022/04/22 12:33:56;;;;;;;8.90;2.53;;;;;;;;;;5004962;28;20231;-15
2022/04/22 12:36:23;;;;;;;5.57;2.90;;;;;;;;;;4997797;28;20293;-15
2022/04/22 12:38:51;;;;;;;7.28;2.75;;;;;;;;;;5004813;28;20234;-15
2022/04/22 12:41:20;;;;;;;8.57;2.80;;;;;;;;;;5002994;28;20437;-15
2022/04/22 12:43:48;;;;;;;7.03;2.80;;;;;;;;;;4998712;28;20418;-15
2022/04/22 12:52:11;;;;;;;5.32;2.30;;;;;;;;;;5005183;28;20234;-15
2022/04/22 12:54:39;;;;;;;3.78;2.38;;;;;;;;;;5003108;28;20387;-15
2022/04/22 12:57:07;;;;;;;5.10;2.75;;;;;;;;;;5002995;28;20254;-14
2022/04/22 12:59:41;;;;;;;4.03;2.40;;;;;;;;;;5002658;28;20419;-15
2022/04/22 13:02:09;;;;;;;6.78;2.60;;;;;;;;;;4991593;28;21481;-16
2022/04/22 13:04:49;;;;;;;7.00;2.15;;;;;;;;;;4995967;28;20244;-16
2022/04/22 13:07:16;;;;;;;6.18;2.22;;;;;;;;;;4996239;28;20239;-16
2022/04/22 13:09:44;;;;;;;4.82;2.50;;;;;;;;;;4995993;28;20243;-16
2022/04/22 13:12:12;;;;;;;4.65;2.40;;;;;;;;;;4999372;28;20239;-17
2022/04/22 13:14:40;;;;;;;4.10;2.67;;;;;;;;;;4996126;28;20239;-16
2022/04/22 13:17:07;;;;;;;2.67;2.28;;;;;;;;;;4999316;28;20851;-17
2022/04/22 13:19:34;;;;;;;3.13;2.08;;;;;;;;;;4993305;28;20331;-17
2022/04/22 13:22:02;;;;;;;3.13;2.30;;;;;;;;;;4999374;28;20236;-16
2022/04/22 13:24:30;;;;;;;5.70;2.58;;;;;;;;;;4997829;28;20270;-15
2022/04/22 13:26:57;;;;;;;5.55;2.53;;;;;;;;;;4995679;28;20228;-16
2022/04/22 13:29:26;;;;;;;5.38;2.47;;;;;;;;;;4997077;28;20252;-16
2022/04/22 13:31:53;;;;;;;3.33;2.38;;;;;;;;;;4994789;28;20239;-16
2022/04/22 13:34:20;;;;;;;4.03;2.45;;;;;;;;;;4995688;28;20240;-16
2022/04/22 13:36:48;;;;;;;4.75;2.42;;;;;;;;;;4995385;28;20235;-16
2022/04/22 13:39:15;;;;;;;4.53;2.42;;;;;;;;;;4998730;28;20247;-16
2022/04/22 13:41:42;;;;;;;6.03;2.58;;;;;;;;;;4994927;28;20238;-16
2022/04/22 13:44:10;;;;;;;3.20;2.50;;;;;;;;;;4998542;28;20240;-17
2022/04/22 13:52:25;;;;;;;6.07;2.67;;;;;;;;;;4997916;28;20247;-16
2022/04/22 13:54:53;;;;;;;4.68;2.67;;;;;;;;;;4995518;28;20232;-17
2022/04/22 13:57:20;;;;;;;4.03;2.67;;;;;;;;;;4995563;28;20227;-16
2022/04/22 13:59:48;;;;;;;6.35;3.00;;;;;;;;;;4994495;28;21090;-17
2022/04/22 14:02:17;;;;;;;4.80;2.42;;;;;;;;;;4994317;28;20246;-15
2022/04/22 14:04:44;;;;;;;7.03;2.90;;;;;;;;;;4991860;28;20451;-15
2022/04/22 14:07:12;;;;;;;7.07;3.90;;;;;;;;;;5000714;28;20420;-16
2022/04/22 14:09:40;;;;;;;9.70;3.15;;;;;;;;;;5000716;28;20978;-15
2022/04/22 14:12:08;;;;;;;8.30;3.80;;;;;;;;;;4999847;28;20232;-15
2022/04/22 14:14:37;;;;;;;6.05;3.92;;;;;;;;;;4999944;28;20243;-15
2022/04/22 14:17:05;;;;;;;9.02;3.80;;;;;;;;;;4998566;28;20859;-15
2022/04/22 14:19:34;;;;;;;6.32;4.00;;;;;;;;;;5001223;28;20223;-15
2022/04/22 14:22:01;;;;;;;5.53;4.10;;;;;;;;;;4999730;28;20247;-16
2022/04/22 14:24:31;;;;;;;13.02;4.60;;;;;;;;;;4999654;28;20240;-16
2022/04/22 14:27:01;;;;;;;7.60;4.38;;;;;;;;;;5005766;28;20235;-15
2022/04/22 14:29:33;;;;;;;7.22;3.95;;;;;;;;;;5001174;28;20235;-15
2022/04/22 14:32:01;;;;;;;6.15;4.30;;;;;;;;;;4998141;28;20291;-16
2022/04/22 14:34:29;;;;;;;8.38;4.80;;;;;;;;;;5002296;28;20231;-15
2022/04/22 14:36:58;;;;;;;5.00;4.13;;;;;;;;;;4999637;28;20664;-15
2022/04/22 14:39:25;;;;;;;5.85;4.85;;;;;;;;;;5002519;28;20725;-15
2022/04/22 14:41:52;;;;;;;8.48;5.03;;;;;;;;;;4999524;28;20249;-15
2022/04/22 14:44:21;;;;;;;8.98;4.25;;;;;;;;;;4999709;28;20223;-15
2022/04/22 14:46:49;;;;;;;8.68;5.13;;;;;;;;;;4998956;28;20230;-15
2022/04/22 14:49:16;;;;;;;8.70;3.65;;;;;;;;;;5001277;28;20263;-16
2022/04/22 14:51:44;;;;;;;6.15;4.03;;;;;;;;;;5002388;28;20239;-16
2022/04/22 14:54:13;;;;;;;9.18;4.15;;;;;;;;;;5000418;28;20223;-16
2022/04/22 14:56:40;;;;;;;7.78;3.22;;;;;;;;;;5002564;28;20212;-15
2022/04/22 14:59:12;;;;;;;8.20;4.05;;;;;;;;;;4999360;28;20232;-15
2022/04/22 15:01:40;;;;;;;6.63;3.25;;;;;;;;;;4998739;28;21116;-15
2022/04/22 15:04:07;;;;;;;10.98;3.63;;;;;;;;;;5002114;28;20319;-15
2022/04/22 15:06:35;;;;;;;4.15;3.40;;;;;;;;;;5001232;28;20243;-15
2022/04/22 15:09:02;;;;;;;6.38;3.17;;;;;;;;;;5000277;28;20705;-15
2022/04/22 15:11:31;;;;;;;5.25;3.08;;;;;;;;;;4999612;28;20228;-15
2022/04/22 15:14:02;;;;;;;8.32;3.17;;;;;;;;;;5001163;28;20234;-15
2022/04/22 15:16:30;;;;;;;6.28;3.28;;;;;;;;;;4999165;28;21069;-16
2022/04/22 15:24:28;;;;;;;5.30;3.33;;;;;;;;;;4996176;28;20233;-15
2022/04/22 15:26:58;;;;;;;4.30;2.85;;;;;;;;;;4998032;28;20240;-15
2022/04/22 15:29:26;;;;;;;4.50;3.10;;;;;;;;;;5003314;28;20335;-15
2022/04/22 15:31:58;;;;;;;7.72;3.08;;;;;;;;;;5003319;28;20772;-15
2022/04/22 15:34:26;;;;;;;5.25;3.80;;;;;;;;;;5002850;28;20235;-15
2022/04/22 15:36:53;;;;;;;5.32;3.10;;;;;;;;;;5003823;28;20840;-15
2022/04/22 15:39:21;;;;;;;4.13;2.78;;;;;;;;;;5002554;28;20233;-16
2022/04/22 15:41:49;;;;;;;8.23;3.03;;;;;;;;;;4999261;28;20782;-15
2022/04/22 15:44:24;;;;;;;6.57;3.15;;;;;;;;;;5002544;28;20228;-15
2022/04/22 15:46:52;;;;;;;5.07;3.20;;;;;;;;;;5000148;28;20242;-15
2022/04/22 15:49:19;;;;;;;4.88;3.05;;;;;;;;;;4997492;28;20711;-15
2022/04/22 15:51:46;;;;;;;4.35;2.92;;;;;;;;;;5004767;28;20227;-15
2022/04/22 15:54:13;;;;;;;6.80;3.28;;;;;;;;;;5000844;28;20261;-15
2022/04/22 15:56:41;;;;;;;5.15;3.10;;;;;;;;;;5003034;28;20235;-15
2022/04/22 15:59:09;;;;;;;4.57;3.28;;;;;;;;;;5004086;28;20242;-15
2022/04/22 16:01:40;;;;;;;4.43;3.40;;;;;;;;;;5000638;28;20235;-15
2022/04/22 16:04:09;;;;;;;5.72;3.10;;;;;;;;;;4996973;28;20236;-15